Time;durP1;ratioP1;P1;durP2;ratioP2;P2;SDS_P1;SDS_P2;PMS_P1;PMS_P2;Temp;Humidity;BMP_temperature;BMP_pressure;BME280_temperature;BME280_humidity;BME280_pressure;Samples;Min_cycle;Max_cycle;Signal;HPM_P1;HPM_P2
2022/11/30 00:02:24;;;;;;;40.30;25.63;;;;;;;;;;5080162;28;20032;-79
2022/11/30 00:04:50;;;;;;;38.95;23.17;;;;;;;;;;5077171;28;20035;-80
2022/11/30 00:07:16;;;;;;;33.80;22.98;;;;;;;;;;5084229;28;20081;-81
2022/11/30 00:09:42;;;;;;;35.78;21.73;;;;;;;;;;5065139;28;20017;-81
2022/11/30 00:12:08;;;;;;;30.60;21.92;;;;;;;;;;5059281;28;20031;-81
2022/11/30 00:14:34;;;;;;;32.65;20.85;;;;;;;;;;5057689;28;20053;-80
2022/11/30 00:17:00;;;;;;;31.38;20.65;;;;;;;;;;5068441;28;20048;-81
2022/11/30 00:19:26;;;;;;;28.70;20.08;;;;;;;;;;5081166;28;20399;-82
2022/11/30 00:21:52;;;;;;;39.28;25.00;;;;;;;;;;5063559;28;20654;-83
2022/11/30 00:24:18;;;;;;;30.40;19.40;;;;;;;;;;5071547;28;20025;-81
2022/11/30 00:26:45;;;;;;;33.47;18.35;;;;;;;;;;5065644;28;20074;-82
2022/11/30 00:29:11;;;;;;;26.23;17.25;;;;;;;;;;5057258;28;20021;-81
2022/11/30 00:31:37;;;;;;;28.08;17.63;;;;;;;;;;5078482;28;20039;-81
2022/11/30 00:34:03;;;;;;;24.05;15.75;;;;;;;;;;5060943;28;20020;-82
2022/11/30 00:36:29;;;;;;;23.17;16.23;;;;;;;;;;5083503;28;20493;-81
2022/11/30 00:38:56;;;;;;;22.42;15.75;;;;;;;;;;5057406;28;20038;-80
2022/11/30 00:41:22;;;;;;;24.63;15.85;;;;;;;;;;5080551;28;20051;-81
2022/11/30 00:43:48;;;;;;;24.10;16.25;;;;;;;;;;5066835;28;20025;-80
2022/11/30 00:46:14;;;;;;;22.55;14.30;;;;;;;;;;5081934;28;20050;-81
2022/11/30 00:48:40;;;;;;;25.17;15.73;;;;;;;;;;5068780;28;20039;-81
2022/11/30 00:51:07;;;;;;;21.05;14.30;;;;;;;;;;5083598;28;20551;-82
2022/11/30 00:53:33;;;;;;;21.88;14.38;;;;;;;;;;5094026;28;20595;-81
2022/11/30 00:55:59;;;;;;;25.98;15.23;;;;;;;;;;5079354;28;20028;-82
2022/11/30 00:58:25;;;;;;;20.05;14.18;;;;;;;;;;5081675;28;20542;-81
2022/11/30 01:00:52;;;;;;;21.30;14.65;;;;;;;;;;5098621;28;20028;-81
2022/11/30 01:03:18;;;;;;;20.17;12.80;;;;;;;;;;5060582;28;20084;-81
2022/11/30 01:05:44;;;;;;;18.90;12.52;;;;;;;;;;5078621;28;20025;-80
2022/11/30 01:08:11;;;;;;;17.08;12.50;;;;;;;;;;5062917;28;20016;-81
2022/11/30 01:10:38;;;;;;;20.95;13.00;;;;;;;;;;5075817;28;20126;-81
2022/11/30 01:13:04;;;;;;;18.95;13.05;;;;;;;;;;5055424;28;20020;-81
2022/11/30 01:15:31;;;;;;;18.58;13.07;;;;;;;;;;5075602;28;20028;-81
2022/11/30 01:17:59;;;;;;;18.77;12.57;;;;;;;;;;5078332;28;20036;-80
2022/11/30 01:20:26;;;;;;;18.60;12.70;;;;;;;;;;5078335;28;20037;-79
2022/11/30 01:22:52;;;;;;;19.17;13.18;;;;;;;;;;5074508;28;20391;-80
2022/11/30 01:25:18;;;;;;;23.05;13.20;;;;;;;;;;5076682;28;20021;-80
2022/11/30 01:27:47;;;;;;;21.23;14.20;;;;;;;;;;5077707;28;20024;-81
2022/11/30 01:30:14;;;;;;;24.80;14.48;;;;;;;;;;5084661;28;20027;-81
2022/11/30 01:32:40;;;;;;;19.55;12.88;;;;;;;;;;5076916;28;20022;-81
2022/11/30 01:35:07;;;;;;;18.15;12.25;;;;;;;;;;5057604;28;20020;-80
2022/11/30 01:37:33;;;;;;;19.85;12.55;;;;;;;;;;5065070;28;20036;-80
2022/11/30 01:39:59;;;;;;;19.50;13.30;;;;;;;;;;5078258;28;20025;-81
2022/11/30 01:42:25;;;;;;;20.08;13.40;;;;;;;;;;5076212;28;20382;-81
2022/11/30 01:44:56;;;;;;;18.27;12.88;;;;;;;;;;5076011;28;20029;-82
2022/11/30 01:47:26;;;;;;;15.75;11.50;;;;;;;;;;5072496;28;20521;-80
2022/11/30 01:49:54;;;;;;;20.05;11.27;;;;;;;;;;5077988;28;20602;-80
2022/11/30 01:52:24;;;;;;;17.67;10.52;;;;;;;;;;5078488;28;20028;-81
2022/11/30 01:55:04;;;;;;;18.98;10.82;;;;;;;;;;5081836;28;20017;-80
2022/11/30 01:57:39;;;;;;;14.13;9.90;;;;;;;;;;5057398;28;20465;-80
2022/11/30 02:00:08;;;;;;;15.25;10.35;;;;;;;;;;5114431;28;20036;-81
2022/11/30 02:02:43;;;;;;;14.65;10.82;;;;;;;;;;5070992;28;20064;-81
2022/11/30 02:05:10;;;;;;;15.60;10.38;;;;;;;;;;5085486;28;20017;-81
2022/11/30 02:07:36;;;;;;;15.23;9.38;;;;;;;;;;5083801;28;20103;-81
2022/11/30 02:10:02;;;;;;;15.50;10.95;;;;;;;;;;5061231;28;20077;-80
2022/11/30 02:12:38;;;;;;;14.65;9.38;;;;;;;;;;5064903;28;20032;-81
2022/11/30 02:15:10;;;;;;;13.52;9.27;;;;;;;;;;5091379;28;20439;-80
2022/11/30 02:17:47;;;;;;;12.30;9.52;;;;;;;;;;5082944;28;20117;-80
2022/11/30 02:20:33;;;;;;;16.75;9.38;;;;;;;;;;5079152;28;20052;-81
2022/11/30 02:22:59;;;;;;;13.13;9.20;;;;;;;;;;5069885;28;20032;-82
2022/11/30 02:25:28;;;;;;;13.55;8.50;;;;;;;;;;5097272;28;20040;-79
2022/11/30 02:28:13;;;;;;;14.73;9.55;;;;;;;;;;5062988;28;20182;-81
2022/11/30 02:30:42;;;;;;;17.15;10.60;;;;;;;;;;5071235;28;20055;-80
2022/11/30 02:33:10;;;;;;;14.65;9.27;;;;;;;;;;5077023;28;20032;-80
2022/11/30 02:35:38;;;;;;;15.10;9.88;;;;;;;;;;5073699;28;20056;-80
2022/11/30 02:38:04;;;;;;;16.35;10.07;;;;;;;;;;5075177;28;20024;-80
2022/11/30 02:40:31;;;;;;;14.30;9.52;;;;;;;;;;5077622;28;20465;-79
2022/11/30 02:42:58;;;;;;;15.20;9.25;;;;;;;;;;5073604;28;20021;-80
2022/11/30 02:45:34;;;;;;;15.18;9.13;;;;;;;;;;5060613;28;20454;-80
2022/11/30 02:48:00;;;;;;;;;;;;;;;;;;5074342;28;20091;-79
2022/11/30 02:50:45;;;;;;;13.02;9.65;;;;;;;;;;5100089;28;19920;-80
2022/11/30 02:53:12;;;;;;;13.32;9.25;;;;;;;;;;5078193;28;20536;-80
2022/11/30 02:55:38;;;;;;;11.32;7.85;;;;;;;;;;5081364;28;20634;-79
2022/11/30 02:58:04;;;;;;;14.32;8.82;;;;;;;;;;5080649;28;20029;-81
2022/11/30 03:00:31;;;;;;;14.65;9.65;;;;;;;;;;5056822;28;20186;-80
2022/11/30 03:02:57;;;;;;;10.77;9.10;;;;;;;;;;5076546;28;20086;-81
2022/11/30 03:05:23;;;;;;;16.63;9.13;;;;;;;;;;5091571;28;20478;-80
2022/11/30 03:07:49;;;;;;;14.32;8.82;;;;;;;;;;5062174;28;20496;-80
2022/11/30 03:10:15;;;;;;;11.48;7.90;;;;;;;;;;5075077;28;20470;-80
2022/11/30 03:12:41;;;;;;;12.38;8.65;;;;;;;;;;5073098;28;20075;-79
2022/11/30 03:15:08;;;;;;;15.25;8.10;;;;;;;;;;5080685;28;20535;-82
2022/11/30 03:17:34;;;;;;;9.65;8.13;;;;;;;;;;5077342;28;20055;-80
2022/11/30 03:20:00;;;;;;;14.80;8.43;;;;;;;;;;5081870;28;20100;-81
2022/11/30 03:22:26;;;;;;;16.38;8.43;;;;;;;;;;5076207;28;20040;-77
2022/11/30 03:24:52;;;;;;;11.48;8.10;;;;;;;;;;5060825;28;20024;-82
2022/11/30 03:27:18;;;;;;;11.18;8.07;;;;;;;;;;5064467;28;20029;-80
2022/11/30 03:29:44;;;;;;;12.85;8.85;;;;;;;;;;5077000;28;20124;-80
2022/11/30 03:32:10;;;;;;;16.85;9.73;;;;;;;;;;5073676;28;20033;-81
2022/11/30 03:34:36;;;;;;;12.52;9.32;;;;;;;;;;5064975;28;20104;-81
2022/11/30 03:37:03;;;;;;;15.32;8.48;;;;;;;;;;5082230;28;20497;-80
2022/11/30 03:39:29;;;;;;;17.85;8.25;;;;;;;;;;5073228;28;20032;-80
2022/11/30 03:41:55;;;;;;;10.93;7.53;;;;;;;;;;5077743;28;20023;-80
2022/11/30 03:44:21;;;;;;;14.90;8.73;;;;;;;;;;5054713;28;20501;-80
2022/11/30 03:46:47;;;;;;;11.75;7.63;;;;;;;;;;5071753;28;20028;-82
2022/11/30 03:49:14;;;;;;;14.07;6.97;;;;;;;;;;5081840;28;20097;-81
2022/11/30 03:51:40;;;;;;;7.97;7.00;;;;;;;;;;5089134;28;20031;-80
2022/11/30 03:54:06;;;;;;;14.10;7.75;;;;;;;;;;5075702;28;20035;-79
2022/11/30 03:56:32;;;;;;;14.77;6.05;;;;;;;;;;5072682;28;20494;-81
2022/11/30 03:58:58;;;;;;;10.80;6.10;;;;;;;;;;5076040;28;20446;-81
2022/11/30 04:01:24;;;;;;;10.23;7.05;;;;;;;;;;5075809;28;20036;-81
2022/11/30 04:03:51;;;;;;;9.52;5.32;;;;;;;;;;5073461;28;20051;-80
2022/11/30 04:06:18;;;;;;;9.02;5.10;;;;;;;;;;5077780;28;20028;-81
2022/11/30 04:08:44;;;;;;;11.07;5.07;;;;;;;;;;5080841;28;20546;-81
2022/11/30 04:11:10;;;;;;;6.72;4.78;;;;;;;;;;5082782;28;20039;-81
2022/11/30 04:13:37;;;;;;;6.82;4.75;;;;;;;;;;5078700;28;20107;-80
2022/11/30 04:16:03;;;;;;;10.98;6.03;;;;;;;;;;5064314;28;20339;-80
2022/11/30 04:18:30;;;;;;;10.77;7.10;;;;;;;;;;5073679;28;20032;-81
2022/11/30 04:20:57;;;;;;;12.18;6.03;;;;;;;;;;5097814;28;20032;-81
2022/11/30 04:23:24;;;;;;;15.00;5.63;;;;;;;;;;5077406;28;20032;-81
2022/11/30 04:25:50;;;;;;;8.35;4.95;;;;;;;;;;5083493;28;20020;-80
2022/11/30 04:28:17;;;;;;;10.77;5.03;;;;;;;;;;5063235;28;20025;-81
2022/11/30 04:30:45;;;;;;;11.93;4.63;;;;;;;;;;5105970;28;20371;-81
2022/11/30 04:33:12;;;;;;;7.63;4.80;;;;;;;;;;5069037;28;20024;-80
2022/11/30 04:35:53;;;;;;;7.60;4.47;;;;;;;;;;5079655;28;20029;-80
2022/11/30 04:38:20;;;;;;;11.40;4.43;;;;;;;;;;5083036;28;20020;-81
2022/11/30 04:40:46;;;;;;;7.32;4.07;;;;;;;;;;5080621;28;20037;-81
2022/11/30 04:43:12;;;;;;;7.63;3.78;;;;;;;;;;5074562;28;20455;-80
2022/11/30 04:45:39;;;;;;;6.10;4.10;;;;;;;;;;5076687;28;20067;-81
2022/11/30 04:48:05;;;;;;;8.13;4.00;;;;;;;;;;5078069;28;20021;-81
2022/11/30 04:50:31;;;;;;;6.55;3.58;;;;;;;;;;5095651;28;20078;-81
2022/11/30 04:52:57;;;;;;;5.57;4.10;;;;;;;;;;5089736;28;20386;-82
2022/11/30 04:55:24;;;;;;;8.40;3.95;;;;;;;;;;5084416;28;20038;-81
2022/11/30 04:57:50;;;;;;;5.80;3.25;;;;;;;;;;5081010;28;20453;-81
2022/11/30 05:00:17;;;;;;;7.82;4.05;;;;;;;;;;5063472;28;20028;-80
2022/11/30 05:02:43;;;;;;;5.45;3.50;;;;;;;;;;5083322;28;20084;-81
2022/11/30 05:05:09;;;;;;;7.10;3.65;;;;;;;;;;5085803;28;20015;-80
2022/11/30 05:07:35;;;;;;;5.68;3.05;;;;;;;;;;5068724;28;20028;-81
2022/11/30 05:10:01;;;;;;;6.13;3.75;;;;;;;;;;5091670;28;20043;-81
2022/11/30 05:12:27;;;;;;;13.13;4.07;;;;;;;;;;5071440;28;20063;-81
2022/11/30 05:14:53;;;;;;;6.38;3.97;;;;;;;;;;5073332;28;20107;-79
2022/11/30 05:17:19;;;;;;;9.00;4.20;;;;;;;;;;5076910;28;20074;-81
2022/11/30 05:19:45;;;;;;;11.68;4.72;;;;;;;;;;5085976;28;20055;-80
2022/11/30 05:22:11;;;;;;;9.73;3.47;;;;;;;;;;5081403;28;20024;-80
2022/11/30 05:24:37;;;;;;;11.82;4.40;;;;;;;;;;5074148;28;20032;-80
2022/11/30 05:27:03;;;;;;;10.07;4.03;;;;;;;;;;5078790;28;20382;-80
2022/11/30 05:29:33;;;;;;;6.07;4.10;;;;;;;;;;5076342;28;20021;-81
2022/11/30 05:32:00;;;;;;;8.02;4.32;;;;;;;;;;5077021;28;20031;-80
2022/11/30 05:34:26;;;;;;;8.20;4.30;;;;;;;;;;5077464;28;20544;-80
2022/11/30 05:36:52;;;;;;;10.20;4.15;;;;;;;;;;5080353;28;20102;-80
2022/11/30 05:39:18;;;;;;;7.43;4.00;;;;;;;;;;5077308;28;20032;-80
2022/11/30 05:41:44;;;;;;;6.88;3.83;;;;;;;;;;5076193;28;20033;-81
2022/11/30 05:44:11;;;;;;;5.45;3.75;;;;;;;;;;5079968;28;20017;-80
2022/11/30 05:46:37;;;;;;;6.38;4.38;;;;;;;;;;5068225;28;20051;-81
2022/11/30 05:49:04;;;;;;;9.38;4.13;;;;;;;;;;5101141;28;20092;-81
2022/11/30 05:51:30;;;;;;;6.03;4.18;;;;;;;;;;5067793;28;20021;-81
2022/11/30 05:53:56;;;;;;;12.10;5.05;;;;;;;;;;5077275;28;20480;-79
2022/11/30 05:56:22;;;;;;;13.20;4.78;;;;;;;;;;5079129;28;20454;-80
2022/11/30 05:58:48;;;;;;;9.93;5.22;;;;;;;;;;5081832;28;20032;-81
2022/11/30 06:01:18;;;;;;;8.65;5.03;;;;;;;;;;5081827;28;20039;-81
2022/11/30 06:03:45;;;;;;;15.02;5.00;;;;;;;;;;5072204;28;20094;-80
2022/11/30 06:06:11;;;;;;;11.90;5.72;;;;;;;;;;5075462;28;20035;-81
2022/11/30 06:08:37;;;;;;;9.65;4.60;;;;;;;;;;5064072;28;20025;-79
2022/11/30 06:11:03;;;;;;;12.80;4.97;;;;;;;;;;5078162;28;20040;-80
2022/11/30 06:13:31;;;;;;;9.88;5.10;;;;;;;;;;5050577;28;20037;-80
2022/11/30 06:16:04;;;;;;;8.60;5.50;;;;;;;;;;5054779;28;20375;-81
2022/11/30 06:18:30;;;;;;;12.40;5.10;;;;;;;;;;5035740;28;20033;-80
2022/11/30 06:21:04;;;;;;;13.05;5.45;;;;;;;;;;5034833;28;20033;-80
2022/11/30 06:23:30;;;;;;;10.38;5.45;;;;;;;;;;5034573;28;20021;-81
2022/11/30 06:25:57;;;;;;;10.75;5.28;;;;;;;;;;5038388;28;20047;-80
2022/11/30 06:28:23;;;;;;;9.43;5.30;;;;;;;;;;5038758;28;20030;-81
2022/11/30 06:30:50;;;;;;;8.60;4.70;;;;;;;;;;5037394;28;20025;-80
2022/11/30 06:33:16;;;;;;;14.93;5.40;;;;;;;;;;5039006;28;20464;-80
2022/11/30 06:35:48;;;;;;;8.18;4.75;;;;;;;;;;5037040;28;20033;-81
2022/11/30 06:38:14;;;;;;;12.82;5.07;;;;;;;;;;5041422;28;20471;-80
2022/11/30 06:40:40;;;;;;;11.60;5.45;;;;;;;;;;5031242;28;20510;-80
2022/11/30 06:43:06;;;;;;;13.85;7.00;;;;;;;;;;5040860;28;20029;-82
2022/11/30 06:45:32;;;;;;;13.20;5.55;;;;;;;;;;5035079;28;20028;-81
2022/11/30 06:47:58;;;;;;;12.85;6.38;;;;;;;;;;5033422;28;20052;-80
2022/11/30 06:50:24;;;;;;;12.18;5.10;;;;;;;;;;5035858;28;20111;-80
2022/11/30 06:52:50;;;;;;;9.43;6.30;;;;;;;;;;5035373;28;20104;-80
2022/11/30 06:55:17;;;;;;;14.68;6.45;;;;;;;;;;5069643;28;20446;-82
2022/11/30 06:57:43;;;;;;;10.98;5.80;;;;;;;;;;5032112;28;20033;-80
2022/11/30 07:00:11;;;;;;;17.55;6.82;;;;;;;;;;5034393;28;20040;-81
2022/11/30 07:02:37;;;;;;;10.77;6.38;;;;;;;;;;5039760;28;20030;-80
2022/11/30 07:05:04;;;;;;;14.20;6.32;;;;;;;;;;5036179;28;20025;-79
2022/11/30 07:07:31;;;;;;;12.07;8.25;;;;;;;;;;5049951;28;20045;-81
2022/11/30 07:09:57;;;;;;;10.05;5.90;;;;;;;;;;5052343;28;20629;-80
2022/11/30 07:12:23;;;;;;;14.27;6.18;;;;;;;;;;5042149;28;20041;-82
2022/11/30 07:14:55;;;;;;;12.55;6.10;;;;;;;;;;5045934;28;20036;-81
2022/11/30 07:17:22;;;;;;;9.18;6.07;;;;;;;;;;5061592;28;20093;-80
2022/11/30 07:19:48;;;;;;;17.08;7.75;;;;;;;;;;5065478;28;20035;-80
2022/11/30 07:22:14;;;;;;;10.07;5.93;;;;;;;;;;5062004;28;20027;-81
2022/11/30 07:27:25;;;;;;;8.27;5.45;;;;;;;;;;5058282;28;20112;-83
2022/11/30 07:29:51;;;;;;;10.32;5.63;;;;;;;;;;5055210;28;20052;-80
2022/11/30 07:32:18;;;;;;;11.55;5.60;;;;;;;;;;5067186;28;20016;-81
2022/11/30 07:34:44;;;;;;;12.32;5.47;;;;;;;;;;5070973;28;20029;-81
2022/11/30 07:37:10;;;;;;;8.73;5.93;;;;;;;;;;5069543;28;20025;-81
2022/11/30 07:39:36;;;;;;;9.30;5.65;;;;;;;;;;5065321;28;20047;-83
2022/11/30 07:42:03;;;;;;;9.32;6.10;;;;;;;;;;5065856;28;20028;-81
2022/11/30 07:44:29;;;;;;;13.18;7.03;;;;;;;;;;5066473;28;20025;-82
2022/11/30 07:46:55;;;;;;;16.63;7.30;;;;;;;;;;5063475;28;20017;-81
2022/11/30 07:49:21;;;;;;;11.45;5.93;;;;;;;;;;5055828;28;20128;-80
2022/11/30 07:51:47;;;;;;;13.05;6.05;;;;;;;;;;5057142;28;20030;-81
2022/11/30 07:54:13;;;;;;;13.00;6.35;;;;;;;;;;5063908;28;20036;-83
2022/11/30 07:56:39;;;;;;;16.52;7.60;;;;;;;;;;5065332;28;20027;-82
2022/11/30 07:59:05;;;;;;;11.20;6.93;;;;;;;;;;5061582;28;20029;-82
2022/11/30 08:01:32;;;;;;;11.27;5.75;;;;;;;;;;5064509;28;20122;-82
2022/11/30 08:03:58;;;;;;;12.77;5.80;;;;;;;;;;5065106;28;20030;-82
2022/11/30 08:06:25;;;;;;;11.75;6.90;;;;;;;;;;5064311;28;20103;-81
2022/11/30 08:08:53;;;;;;;10.80;5.80;;;;;;;;;;5063827;28;20088;-81
2022/11/30 08:11:20;;;;;;;11.35;6.22;;;;;;;;;;5063570;28;20043;-81
2022/11/30 08:13:46;;;;;;;13.65;5.32;;;;;;;;;;5057883;28;20060;-81
2022/11/30 08:16:17;;;;;;;11.00;6.38;;;;;;;;;;5065282;28;20027;-82
2022/11/30 08:18:43;;;;;;;13.18;5.90;;;;;;;;;;5082777;28;20127;-81
2022/11/30 08:21:10;;;;;;;7.75;5.25;;;;;;;;;;5086890;28;20509;-80
2022/11/30 08:23:38;;;;;;;14.60;7.22;;;;;;;;;;5062579;28;20033;-80
2022/11/30 08:26:10;;;;;;;10.30;6.65;;;;;;;;;;5060187;28;20031;-82
2022/11/30 08:28:36;;;;;;;9.65;6.18;;;;;;;;;;5069358;28;20035;-81
2022/11/30 08:31:04;;;;;;;12.23;6.72;;;;;;;;;;5073467;28;20032;-81
2022/11/30 08:33:31;;;;;;;15.27;6.55;;;;;;;;;;5069414;28;20039;-82
2022/11/30 08:36:06;;;;;;;11.88;7.13;;;;;;;;;;5094021;28;20471;-80
2022/11/30 08:38:32;;;;;;;;;;;;;;;;;;5074107;28;20036;-80
2022/11/30 08:40:58;;;;;;;12.38;6.80;;;;;;;;;;5075356;28;20325;-81
2022/11/30 08:43:24;;;;;;;9.20;6.65;;;;;;;;;;5088710;28;20386;-81
2022/11/30 08:45:50;;;;;;;12.20;6.75;;;;;;;;;;5084635;28;20056;-81
2022/11/30 08:48:16;;;;;;;12.35;6.28;;;;;;;;;;5082714;28;20025;-81
2022/11/30 08:50:42;;;;;;;8.52;5.75;;;;;;;;;;5074290;28;20036;-80
2022/11/30 08:53:09;;;;;;;12.10;6.95;;;;;;;;;;5090579;28;20025;-80
2022/11/30 08:55:35;;;;;;;9.73;5.35;;;;;;;;;;5066835;28;20024;-80
2022/11/30 08:58:01;;;;;;;11.85;5.00;;;;;;;;;;5083672;28;20458;-81
2022/11/30 09:00:27;;;;;;;8.90;5.43;;;;;;;;;;5062360;28;20240;-82
2022/11/30 09:02:53;;;;;;;9.43;5.28;;;;;;;;;;5078454;28;20086;-82
2022/11/30 09:05:19;;;;;;;12.93;5.93;;;;;;;;;;5064794;28;20024;-81
2022/11/30 09:07:45;;;;;;;7.18;4.93;;;;;;;;;;5089509;28;20031;-81
2022/11/30 09:10:11;;;;;;;8.60;5.25;;;;;;;;;;5082813;28;20501;-80
2022/11/30 09:12:38;;;;;;;10.63;6.30;;;;;;;;;;5069167;28;20393;-82
2022/11/30 09:15:05;;;;;;;11.77;6.45;;;;;;;;;;5070046;28;20028;-81
2022/11/30 09:17:32;;;;;;;9.40;6.35;;;;;;;;;;5072882;28;20057;-79
2022/11/30 09:19:58;;;;;;;10.15;5.60;;;;;;;;;;5065733;28;20025;-78
2022/11/30 09:22:24;;;;;;;12.35;5.50;;;;;;;;;;5062542;28;20037;-78
2022/11/30 09:24:51;;;;;;;10.63;6.00;;;;;;;;;;5064083;28;20028;-78
2022/11/30 09:27:17;;;;;;;18.55;13.32;;;;;;;;;;5066831;28;20024;-78
2022/11/30 09:29:43;;;;;;;11.57;8.15;;;;;;;;;;5064572;28;20029;-78
2022/11/30 09:32:09;;;;;;;10.10;8.00;;;;;;;;;;5060045;28;20028;-78
2022/11/30 09:34:35;;;;;;;12.75;6.18;;;;;;;;;;5064074;28;20517;-79
2022/11/30 09:37:01;;;;;;;13.82;5.82;;;;;;;;;;5065437;28;20050;-78
2022/11/30 09:39:27;;;;;;;10.65;6.85;;;;;;;;;;5072587;28;20036;-79
2022/11/30 09:42:12;;;;;;;10.05;5.80;;;;;;;;;;5048558;28;20036;-78
2022/11/30 09:44:43;;;;;;;7.53;5.53;;;;;;;;;;5067121;28;20005;-77
2022/11/30 09:47:29;;;;;;;6.85;4.97;;;;;;;;;;5066738;28;20080;-78
2022/11/30 09:49:57;;;;;;;11.65;6.35;;;;;;;;;;5062976;28;20102;-79
2022/11/30 09:52:28;;;;;;;8.30;5.60;;;;;;;;;;5068131;28;20036;-79
2022/11/30 09:54:55;;;;;;;6.68;5.45;;;;;;;;;;5066076;28;20036;-79
2022/11/30 09:57:27;;;;;;;11.73;5.55;;;;;;;;;;5068452;28;20420;-79
2022/11/30 10:00:14;;;;;;;13.23;6.00;;;;;;;;;;5068801;28;20043;-79
2022/11/30 10:02:40;;;;;;;9.98;5.50;;;;;;;;;;5059061;28;20035;-80
2022/11/30 10:05:45;;;;;;;12.73;5.65;;;;;;;;;;5070249;28;20339;-78
2022/11/30 10:08:31;;;;;;;14.43;6.38;;;;;;;;;;5064243;28;20071;-79
2022/11/30 10:11:12;;;;;;;8.98;5.30;;;;;;;;;;5066383;28;20555;-80
2022/11/30 10:13:57;;;;;;;10.55;5.10;;;;;;;;;;5065479;28;20581;-80
2022/11/30 10:16:41;;;;;;;9.18;6.60;;;;;;;;;;5063018;28;20031;-79
2022/11/30 10:19:25;;;;;;;8.77;5.15;;;;;;;;;;5066643;28;20028;-79
2022/11/30 10:22:01;;;;;;;7.50;5.13;;;;;;;;;;5070995;28;20035;-79
2022/11/30 10:24:55;;;;;;;7.80;4.53;;;;;;;;;;5054877;28;20031;-79
2022/11/30 10:27:40;;;;;;;8.57;5.05;;;;;;;;;;5063364;28;20038;-77
2022/11/30 10:30:13;;;;;;;8.07;5.83;;;;;;;;;;5061632;28;20024;-79
2022/11/30 10:32:45;;;;;;;8.32;5.47;;;;;;;;;;5060852;28;20028;-80
2022/11/30 10:35:17;;;;;;;7.35;5.28;;;;;;;;;;5064256;28;20154;-78
2022/11/30 10:37:44;;;;;;;8.45;5.15;;;;;;;;;;5068997;28;20028;-77
2022/11/30 10:40:17;;;;;;;12.10;5.45;;;;;;;;;;5073261;28;20091;-78
2022/11/30 10:42:49;;;;;;;9.52;4.97;;;;;;;;;;5070954;28;20044;-79
2022/11/30 10:45:21;;;;;;;7.15;5.00;;;;;;;;;;5074045;28;20107;-79
2022/11/30 10:48:04;;;;;;;5.45;4.70;;;;;;;;;;5070796;28;20035;-79
2022/11/30 10:50:31;;;;;;;6.10;4.80;;;;;;;;;;5068506;28;20025;-79
2022/11/30 10:52:58;;;;;;;8.93;4.65;;;;;;;;;;5061899;28;20394;-79
2022/11/30 10:55:25;;;;;;;12.45;5.20;;;;;;;;;;5067357;28;20626;-78
2022/11/30 10:58:00;;;;;;;7.15;4.55;;;;;;;;;;5063821;28;20032;-79
2022/11/30 11:00:26;;;;;;;10.00;5.93;;;;;;;;;;5066776;28;20082;-79
2022/11/30 11:02:52;;;;;;;10.52;6.13;;;;;;;;;;5052658;28;20045;-76
2022/11/30 11:05:19;;;;;;;7.72;5.60;;;;;;;;;;5056599;28;20549;-77
2022/11/30 11:07:54;;;;;;;11.68;5.63;;;;;;;;;;5067229;28;20085;-77
2022/11/30 11:10:20;;;;;;;;;;;;;;;;;;5056030;28;20116;-77
2022/11/30 11:12:46;;;;;;;;;;;;;;;;;;5066702;28;19952;-78
2022/11/30 11:15:20;;;;;;;18.42;6.65;;;;;;;;;;5068976;28;19912;-78
2022/11/30 11:17:47;;;;;;;20.33;7.90;;;;;;;;;;5064450;28;20064;-77
2022/11/30 11:20:30;;;;;;;7.72;4.32;;;;;;;;;;5050429;28;20038;-78
2022/11/30 11:22:56;;;;;;;5.80;3.35;;;;;;;;;;5061043;28;20063;-79
2022/11/30 11:25:25;;;;;;;8.45;4.15;;;;;;;;;;5062317;28;20081;-79
2022/11/30 11:27:52;;;;;;;9.00;4.03;;;;;;;;;;5069462;28;20028;-79
2022/11/30 11:30:28;;;;;;;4.70;2.80;;;;;;;;;;5057547;28;20032;-80
2022/11/30 11:32:54;;;;;;;;;;;;;;;;;;5071014;28;20494;-79
2022/11/30 11:35:20;;;;;;;;;;;;;;;;;;5084272;28;19918;-80
2022/11/30 11:37:51;;;;;;;7.80;4.10;;;;;;;;;;5081515;28;19944;-77
2022/11/30 11:40:19;;;;;;;8.95;6.20;;;;;;;;;;5075649;28;20077;-79
2022/11/30 11:42:48;;;;;;;10.57;4.63;;;;;;;;;;5080025;28;20065;-79
2022/11/30 11:45:25;;;;;;;6.57;4.30;;;;;;;;;;5081207;28;20406;-80
2022/11/30 11:48:01;;;;;;;5.18;3.67;;;;;;;;;;5073975;28;20467;-79
2022/11/30 11:50:29;;;;;;;5.57;3.10;;;;;;;;;;5081878;28;20028;-79
2022/11/30 11:53:21;;;;;;;6.13;3.47;;;;;;;;;;5084793;28;20032;-79
2022/11/30 11:55:49;;;;;;;5.70;2.72;;;;;;;;;;5080232;28;20100;-80
2022/11/30 11:58:18;;;;;;;4.13;2.47;;;;;;;;;;5076966;28;20516;-79
2022/11/30 12:00:46;;;;;;;3.03;2.47;;;;;;;;;;5075854;28;20004;-80
2022/11/30 12:03:15;;;;;;;3.50;2.78;;;;;;;;;;5081923;28;20044;-80
2022/11/30 12:05:53;;;;;;;3.53;2.67;;;;;;;;;;5064279;28;20032;-80
2022/11/30 12:08:33;;;;;;;3.90;2.00;;;;;;;;;;5076077;28;20025;-79
2022/11/30 12:11:01;;;;;;;2.42;2.10;;;;;;;;;;5064000;28;20023;-81
2022/11/30 12:13:49;;;;;;;2.63;2.25;;;;;;;;;;5073771;28;20060;-78
2022/11/30 12:16:37;;;;;;;2.90;2.10;;;;;;;;;;5055174;28;20393;-78
2022/11/30 12:19:03;;;;;;;2.03;1.83;;;;;;;;;;5071616;28;20038;-79
2022/11/30 12:21:45;;;;;;;3.45;2.42;;;;;;;;;;5053087;28;20039;-79
2022/11/30 12:24:25;;;;;;;2.42;1.95;;;;;;;;;;5067273;28;20025;-78
2022/11/30 12:27:00;;;;;;;2.53;1.83;;;;;;;;;;5068817;28;20024;-78
2022/11/30 12:29:42;;;;;;;2.10;1.90;;;;;;;;;;5048963;28;20350;-79
2022/11/30 12:32:27;;;;;;;4.10;2.20;;;;;;;;;;5074956;28;20031;-81
2022/11/30 12:34:55;;;;;;;2.67;2.13;;;;;;;;;;5078169;28;20020;-79
2022/11/30 12:37:40;;;;;;;3.05;1.90;;;;;;;;;;5075624;28;20032;-79
2022/11/30 12:40:09;;;;;;;3.33;1.88;;;;;;;;;;5066294;28;20033;-78
2022/11/30 12:42:45;;;;;;;2.92;2.28;;;;;;;;;;5066623;28;20547;-78
2022/11/30 12:45:11;;;;;;;;;;;;;;;;;;5050760;28;20406;-78
2022/11/30 12:47:37;;;;;;;;;;;;;;;;;;5071725;28;19916;-79
2022/11/30 12:50:03;;;;;;;3.67;2.17;;;;;;;;;;5070301;28;19916;-79
2022/11/30 12:52:38;;;;;;;4.55;2.47;;;;;;;;;;5062925;28;20031;-80
2022/11/30 12:55:05;;;;;;;3.88;2.35;;;;;;;;;;5071447;28;20020;-80
2022/11/30 12:57:35;;;;;;;3.60;2.50;;;;;;;;;;5070809;28;20028;-80
2022/11/30 13:00:20;;;;;;;2.72;1.98;;;;;;;;;;5071518;28;20032;-79
2022/11/30 13:03:19;;;;;;;3.28;2.22;;;;;;;;;;5059913;28;20024;-80
2022/11/30 13:05:51;;;;;;;3.33;2.40;;;;;;;;;;5026647;28;20033;-79
2022/11/30 13:08:34;;;;;;;1.85;1.75;;;;;;;;;;5072553;28;20417;-79
2022/11/30 13:11:07;;;;;;;3.42;2.00;;;;;;;;;;5068844;28;20086;-79
2022/11/30 13:13:34;;;;;;;1.98;1.77;;;;;;;;;;5070600;28;20059;-79
2022/11/30 13:16:02;;;;;;;3.25;2.15;;;;;;;;;;5065902;28;20127;-79
2022/11/30 13:18:31;;;;;;;5.72;2.70;;;;;;;;;;5078793;28;20462;-78
2022/11/30 13:20:57;;;;;;;2.72;2.05;;;;;;;;;;5070147;28;20121;-78
2022/11/30 13:23:43;;;;;;;2.90;2.08;;;;;;;;;;5052240;28;20028;-79
2022/11/30 13:26:16;;;;;;;4.32;2.63;;;;;;;;;;5073546;28;20035;-79
2022/11/30 13:28:42;;;;;;;13.25;6.85;;;;;;;;;;5070914;28;20028;-80
2022/11/30 13:31:32;;;;;;;17.45;10.30;;;;;;;;;;5072311;28;20025;-78
2022/11/30 13:33:59;;;;;;;5.88;3.28;;;;;;;;;;5052866;28;20028;-79
2022/11/30 13:36:43;;;;;;;7.05;4.13;;;;;;;;;;5069425;28;20025;-79
2022/11/30 13:39:21;;;;;;;3.50;3.15;;;;;;;;;;5069889;28;20024;-78
2022/11/30 13:41:48;;;;;;;4.18;2.72;;;;;;;;;;5055907;28;20035;-78
2022/11/30 13:44:25;;;;;;;5.15;2.33;;;;;;;;;;5072066;28;20472;-79
2022/11/30 13:46:52;;;;;;;4.50;2.83;;;;;;;;;;5071263;28;20526;-80
2022/11/30 13:49:23;;;;;;;3.10;2.45;;;;;;;;;;5069514;28;20580;-79
2022/11/30 13:51:49;;;;;;;3.05;1.98;;;;;;;;;;5069044;28;20033;-78
2022/11/30 13:54:34;;;;;;;5.32;2.40;;;;;;;;;;5060174;28;20036;-79
2022/11/30 13:57:00;;;;;;;3.28;2.20;;;;;;;;;;5076067;28;20127;-77
2022/11/30 13:59:26;;;;;;;3.72;2.72;;;;;;;;;;5070030;28;20033;-79
2022/11/30 14:01:53;;;;;;;3.55;2.58;;;;;;;;;;5076534;28;20024;-80
2022/11/30 14:04:32;;;;;;;3.50;2.60;;;;;;;;;;5063581;28;20027;-79
2022/11/30 14:06:59;;;;;;;4.95;2.78;;;;;;;;;;5056888;28;20057;-78
2022/11/30 14:09:41;;;;;;;2.95;2.17;;;;;;;;;;5076267;28;20027;-78
2022/11/30 14:12:26;;;;;;;4.57;2.42;;;;;;;;;;5068286;28;20035;-79
2022/11/30 14:14:52;;;;;;;2.37;2.17;;;;;;;;;;5069534;28;20036;-79
2022/11/30 14:17:25;;;;;;;3.90;2.60;;;;;;;;;;5065368;28;20298;-78
2022/11/30 14:19:52;;;;;;;8.40;4.07;;;;;;;;;;5069463;28;20102;-79
2022/11/30 14:22:19;;;;;;;6.35;3.58;;;;;;;;;;5072761;28;20040;-79
2022/11/30 14:24:47;;;;;;;5.45;3.05;;;;;;;;;;5073542;28;20118;-79
2022/11/30 14:27:17;;;;;;;4.28;2.70;;;;;;;;;;5070032;28;20143;-79
2022/11/30 14:29:52;;;;;;;4.15;2.50;;;;;;;;;;5070174;28;20486;-79
2022/11/30 14:32:22;;;;;;;3.90;3.25;;;;;;;;;;5055923;28;20104;-79
2022/11/30 14:34:50;;;;;;;5.80;3.67;;;;;;;;;;5070435;28;20085;-79
2022/11/30 14:37:24;;;;;;;5.47;3.50;;;;;;;;;;5071686;28;20506;-78
2022/11/30 14:39:52;;;;;;;8.30;4.18;;;;;;;;;;5069754;28;20460;-79
2022/11/30 14:42:20;;;;;;;10.18;6.15;;;;;;;;;;5059598;28;20055;-80
2022/11/30 14:44:46;;;;;;;9.57;6.63;;;;;;;;;;5073153;28;20506;-79
2022/11/30 14:47:13;;;;;;;7.18;5.82;;;;;;;;;;5071953;28;20024;-81
2022/11/30 14:49:45;;;;;;;6.97;6.00;;;;;;;;;;5071748;28;20032;-79
2022/11/30 14:52:12;;;;;;;7.22;4.88;;;;;;;;;;5070625;28;20500;-79